createdAt,value
2023-04-15T00:00:58.311Z,1.30
2023-04-15T00:03:27.012Z,1.30
2023-04-15T00:05:55.235Z,1.40
2023-04-15T00:08:24.845Z,1.60
2023-04-15T00:10:52.809Z,1.50
2023-04-15T00:13:20.772Z,1.57
2023-04-15T00:15:49.352Z,1.50
2023-04-15T00:18:17.318Z,1.60
2023-04-15T00:20:45.269Z,1.40
2023-04-15T00:23:13.618Z,1.40
2023-04-15T00:25:43.300Z,1.37
2023-04-15T00:28:11.594Z,1.47
2023-04-15T00:30:41.572Z,1.43
2023-04-15T00:33:09.704Z,1.50
2023-04-15T00:35:37.899Z,1.20
2023-04-15T00:38:07.139Z,1.60
2023-04-15T00:40:35.385Z,1.30
2023-04-15T00:43:05.558Z,1.40
2023-04-15T00:45:33.579Z,1.37
2023-04-15T00:48:01.620Z,1.60
2023-04-15T00:50:29.547Z,2.13
2023-04-15T00:52:57.585Z,1.40
2023-04-15T00:55:26.738Z,1.50
2023-04-15T00:57:55.618Z,1.50
2023-04-15T01:00:25.055Z,1.50
2023-04-15T01:02:53.231Z,1.63
2023-04-15T01:05:21.521Z,1.50
2023-04-15T01:07:49.905Z,1.60
2023-04-15T01:10:18.625Z,1.70
2023-04-15T01:12:46.894Z,1.60
2023-04-15T01:15:14.783Z,1.60
2023-04-15T01:17:44.062Z,1.60
2023-04-15T01:20:12.408Z,1.47
2023-04-15T01:22:42.123Z,1.57
2023-04-15T01:25:13.072Z,1.53
2023-04-15T01:27:43.288Z,1.50
2023-04-15T01:30:12.200Z,1.53
2023-04-15T01:32:40.206Z,1.93
2023-04-15T01:35:08.733Z,2.50
2023-04-15T01:37:37.582Z,1.47
2023-04-15T01:40:06.474Z,1.47
2023-04-15T01:42:36.500Z,1.40
2023-04-15T01:45:07.167Z,1.40
2023-04-15T01:47:35.300Z,1.50
2023-04-15T01:50:03.349Z,1.40
2023-04-15T01:52:32.166Z,1.57
2023-04-15T01:55:00.156Z,1.40
2023-04-15T01:57:29.751Z,1.60
2023-04-15T01:59:57.736Z,1.30
2023-04-15T02:02:27.142Z,1.40
2023-04-15T02:04:57.977Z,1.57
2023-04-15T02:07:25.922Z,1.60
2023-04-15T02:09:54.232Z,2.00
2023-04-15T02:12:22.540Z,1.50
2023-04-15T02:15:00.408Z,1.30
2023-04-15T02:17:30.568Z,1.30
2023-04-15T02:20:06.991Z,1.60
2023-04-15T02:22:34.991Z,1.47
2023-04-15T02:25:06.125Z,1.67
2023-04-15T02:27:37.791Z,1.30
2023-04-15T02:30:09.200Z,1.47
2023-04-15T02:32:41.045Z,1.60
2023-04-15T02:35:13.177Z,1.70
2023-04-15T02:37:45.599Z,1.60
2023-04-15T02:40:14.357Z,1.40
2023-04-15T02:42:44.166Z,1.60
2023-04-15T02:45:14.562Z,1.60
2023-04-15T02:47:45.937Z,1.50
2023-04-15T02:50:15.042Z,1.70
2023-04-15T02:52:44.741Z,1.53
2023-04-15T02:55:14.442Z,1.50
2023-04-15T02:57:42.449Z,1.60
2023-04-15T03:00:12.719Z,1.40
2023-04-15T03:02:45.699Z,1.60
2023-04-15T03:05:15.435Z,1.80
2023-04-15T03:07:49.454Z,1.70
2023-04-15T03:10:17.713Z,1.77
2023-04-15T03:12:47.638Z,1.57
2023-04-15T03:15:20.114Z,1.50
2023-04-15T03:17:52.775Z,1.47
2023-04-15T03:20:20.914Z,1.80
2023-04-15T03:22:50.185Z,1.50
2023-04-15T03:25:20.041Z,1.70
2023-04-15T03:27:48.062Z,2.30
2023-04-15T03:30:16.399Z,1.70
2023-04-15T03:32:44.520Z,1.60
2023-04-15T03:35:13.776Z,1.60
2023-04-15T03:37:41.924Z,1.80
2023-04-15T03:40:10.725Z,1.50
2023-04-15T03:42:38.610Z,1.40
2023-04-15T03:45:07.754Z,2.00
2023-04-15T03:47:35.685Z,1.60
2023-04-15T03:50:03.645Z,2.03
2023-04-15T03:52:32.890Z,1.70
2023-04-15T03:55:00.841Z,1.60
2023-04-15T03:57:28.768Z,2.03
2023-04-15T03:59:56.714Z,1.63
2023-04-15T04:02:24.745Z,1.63
2023-04-15T04:04:52.991Z,1.50
2023-04-15T04:07:20.963Z,1.30
2023-04-15T04:09:50.263Z,1.60
2023-04-15T04:12:18.243Z,1.70
2023-04-15T04:14:46.218Z,1.80
2023-04-15T04:17:14.171Z,2.03
2023-04-15T04:19:42.104Z,1.70
2023-04-15T04:22:10.004Z,1.50
2023-04-15T04:24:39.087Z,1.77
2023-04-15T04:27:08.396Z,1.77
2023-04-15T04:29:38.382Z,1.93
2023-04-15T04:32:06.822Z,1.47
2023-04-15T04:34:34.800Z,1.50
2023-04-15T04:37:03.025Z,1.57
2023-04-15T04:39:31.117Z,1.70
2023-04-15T04:41:59.016Z,1.50
2023-04-15T04:44:28.288Z,1.50
2023-04-15T04:46:56.218Z,1.80
2023-04-15T04:49:24.264Z,1.57
2023-04-15T04:51:52.300Z,1.60
2023-04-15T04:54:21.238Z,1.60
2023-04-15T04:56:49.138Z,1.60
2023-04-15T04:59:19.014Z,1.80
2023-04-15T05:01:49.209Z,1.97
2023-04-15T05:04:17.346Z,1.80
2023-04-15T05:06:45.291Z,1.77
2023-04-15T05:09:13.272Z,1.50
2023-04-15T05:11:41.254Z,1.67
2023-04-15T05:14:09.144Z,1.70
2023-04-15T05:16:37.350Z,1.80
2023-04-15T05:19:07.661Z,1.63
2023-04-15T05:21:36.690Z,1.80
2023-04-15T05:24:06.909Z,1.60
2023-04-15T05:26:34.807Z,1.60
2023-04-15T05:29:03.536Z,1.40
2023-04-15T05:31:31.583Z,1.53
2023-04-15T05:33:59.613Z,1.63
2023-04-15T05:36:28.898Z,1.90
2023-04-15T05:38:56.844Z,1.70
2023-04-15T05:41:24.751Z,1.73
2023-04-15T05:43:52.727Z,1.70
2023-04-15T05:46:20.802Z,1.70
2023-04-15T05:48:48.726Z,1.70
2023-04-15T05:51:17.637Z,1.50
2023-04-15T05:53:46.986Z,1.53
2023-04-15T05:56:15.249Z,1.63
2023-04-15T05:58:43.204Z,1.53
2023-04-15T06:01:11.658Z,2.53
2023-04-15T06:03:39.989Z,1.70
2023-04-15T06:06:08.715Z,1.57
2023-04-15T06:08:36.677Z,2.20
2023-04-15T06:11:06.611Z,1.70
2023-04-15T06:16:02.820Z,1.43
2023-04-15T06:18:30.750Z,1.50
2023-04-15T06:20:58.809Z,1.50
2023-04-15T06:23:28.137Z,1.70
2023-04-15T06:25:56.115Z,1.80
2023-04-15T06:28:25.468Z,1.60
2023-04-15T06:30:54.414Z,2.40
2023-04-15T06:33:22.425Z,1.50
2023-04-15T06:35:50.956Z,1.60
2023-04-15T06:38:18.874Z,1.53
2023-04-15T06:40:47.408Z,1.80
2023-04-15T06:43:15.406Z,1.70
2023-04-15T06:45:44.697Z,1.60
2023-04-15T06:48:13.117Z,1.80
2023-04-15T06:50:41.520Z,1.63
2023-04-15T06:53:09.447Z,1.80
2023-04-15T06:55:38.248Z,1.70
2023-04-15T06:58:06.338Z,1.77
2023-04-15T07:00:34.706Z,1.70
2023-04-15T07:03:04.159Z,1.40
2023-04-15T07:05:32.442Z,1.67
2023-04-15T07:08:00.440Z,1.83
2023-04-15T07:10:28.385Z,1.67
2023-04-15T07:12:56.315Z,1.60
2023-04-15T07:15:24.928Z,1.80
2023-04-15T07:17:52.901Z,1.80
2023-04-15T07:20:22.543Z,3.17
2023-04-15T07:22:50.469Z,1.50
2023-04-15T07:25:19.033Z,1.63
2023-04-15T07:27:47.346Z,1.80
2023-04-15T07:30:15.879Z,1.70
2023-04-15T07:32:44.031Z,1.53
2023-04-15T07:35:11.961Z,1.70
2023-04-15T07:37:43.196Z,1.87
2023-04-15T07:40:12.170Z,1.70
2023-04-15T07:42:41.409Z,1.60
2023-04-15T07:45:10.251Z,1.70
2023-04-15T07:47:38.211Z,1.50
2023-04-15T07:50:07.382Z,1.57
2023-04-15T07:52:39.146Z,1.63
2023-04-15T07:55:09.482Z,1.67
2023-04-15T07:57:37.475Z,1.60
2023-04-15T08:00:07.523Z,1.50
2023-04-15T08:02:42.752Z,1.60
2023-04-15T08:05:11.171Z,1.90
2023-04-15T08:07:40.052Z,1.70
2023-04-15T08:10:10.758Z,1.70
2023-04-15T08:12:38.848Z,1.83
2023-04-15T08:15:08.234Z,1.60
2023-04-15T08:17:36.674Z,1.80
2023-04-15T08:20:05.862Z,2.00
2023-04-15T08:22:34.455Z,1.77
2023-04-15T08:25:03.384Z,1.73
2023-04-15T08:27:32.636Z,1.70
2023-04-15T08:30:02.754Z,1.60
2023-04-15T08:32:32.437Z,2.03
2023-04-15T08:35:00.589Z,1.80
2023-04-15T08:37:28.568Z,1.60
2023-04-15T08:39:56.796Z,2.00
2023-04-15T08:42:31.769Z,1.67
2023-04-15T08:45:03.570Z,1.80
2023-04-15T08:47:32.817Z,1.50
2023-04-15T08:50:04.639Z,1.90
2023-04-15T08:52:32.932Z,1.57
2023-04-15T08:55:03.280Z,1.67
2023-04-15T08:57:33.990Z,1.93
2023-04-15T09:00:05.883Z,1.80
2023-04-15T09:02:34.072Z,1.47
2023-04-15T09:05:04.931Z,1.70
2023-04-15T09:07:34.938Z,1.60
2023-04-15T09:10:03.969Z,1.80
2023-04-15T09:12:32.126Z,1.90
2023-04-15T09:15:01.361Z,1.80
2023-04-15T09:17:33.742Z,1.80
2023-04-15T09:20:10.277Z,1.77
2023-04-15T09:22:38.583Z,1.60
2023-04-15T09:25:27.614Z,1.93
2023-04-15T09:27:57.465Z,1.50
2023-04-15T09:30:26.023Z,1.60
2023-04-15T09:32:57.218Z,1.53
2023-04-15T09:35:27.382Z,1.70
2023-04-15T09:38:03.965Z,1.70
2023-04-15T09:40:36.045Z,1.70
2023-04-15T09:43:05.068Z,2.07
2023-04-15T09:45:34.044Z,1.83
2023-04-15T09:48:18.221Z,1.60
2023-04-15T09:50:46.214Z,1.60
2023-04-15T09:53:19.051Z,1.63
2023-04-15T09:55:50.251Z,1.67
2023-04-15T09:58:22.404Z,2.17
2023-04-15T10:00:51.533Z,1.70
2023-04-15T10:03:24.524Z,1.90
2023-04-15T10:05:54.026Z,1.73
2023-04-15T10:08:23.868Z,1.50
2023-04-15T10:10:52.745Z,1.87
2023-04-15T10:13:23.609Z,2.33
2023-04-15T10:15:53.521Z,1.50
2023-04-15T10:18:26.575Z,1.60
2023-04-15T10:20:54.957Z,1.70
2023-04-15T10:23:24.562Z,1.70
2023-04-15T10:25:55.200Z,1.63
2023-04-15T10:28:23.698Z,1.90
2023-04-15T10:30:51.995Z,1.90
2023-04-15T10:33:23.772Z,1.83
2023-04-15T10:35:53.662Z,1.63
2023-04-15T10:38:36.489Z,1.60
2023-04-15T10:41:19.958Z,1.67
2023-04-15T11:49:06.989Z,9.63
2023-04-15T11:51:36.780Z,7.60
2023-04-15T11:54:07.032Z,6.30
2023-04-15T11:56:36.145Z,4.57
2023-04-15T11:59:05.312Z,4.73
2023-04-15T12:01:35.275Z,5.03
2023-04-15T12:04:04.618Z,8.67
2023-04-15T12:06:37.345Z,5.80
2023-04-15T12:09:10.621Z,6.07
2023-04-15T12:11:49.706Z,5.67
2023-04-15T12:14:25.787Z,5.27
2023-04-15T12:16:58.412Z,5.83
2023-04-15T12:19:32.566Z,7.17
2023-04-15T12:22:05.292Z,4.63
2023-04-15T12:24:35.089Z,7.03
2023-04-15T12:27:05.895Z,4.07
2023-04-15T12:29:35.484Z,3.60
2023-04-15T12:32:08.823Z,4.13
2023-04-15T12:34:39.513Z,4.33
2023-04-15T12:37:10.895Z,5.17
2023-04-15T12:39:40.733Z,4.27
2023-04-15T12:42:10.281Z,2.83
2023-04-15T12:44:40.271Z,5.50
2023-04-15T12:47:10.120Z,5.43
2023-04-15T12:49:39.478Z,4.00
2023-04-15T12:52:09.596Z,4.23
2023-04-15T12:54:38.245Z,3.23
2023-04-15T12:57:07.707Z,5.30
2023-04-15T12:59:36.863Z,3.30
2023-04-15T13:02:05.779Z,5.40
2023-04-15T13:04:34.388Z,10.83
2023-04-15T13:07:03.153Z,6.63
2023-04-15T13:09:33.170Z,4.37
2023-04-15T13:12:02.312Z,4.47
2023-04-15T13:14:30.763Z,4.83
2023-04-15T13:16:59.148Z,5.23
2023-04-15T13:19:27.832Z,3.67
2023-04-15T13:21:56.413Z,5.00
2023-04-15T13:24:27.679Z,5.40
2023-04-15T13:26:59.246Z,3.77
2023-04-15T13:29:28.111Z,4.93
2023-04-15T13:31:57.844Z,4.77
2023-04-15T13:34:26.657Z,5.40
2023-04-15T13:36:58.022Z,4.50
2023-04-15T13:39:26.937Z,4.13
2023-04-15T13:41:56.066Z,5.23
2023-04-15T13:44:26.003Z,3.93
2023-04-15T13:46:54.511Z,4.73
2023-04-15T13:49:23.197Z,3.10
2023-04-15T13:51:53.109Z,3.37
2023-04-15T13:54:21.829Z,2.97
2023-04-15T13:56:50.539Z,3.60
2023-04-15T13:59:19.049Z,5.50
2023-04-15T14:01:49.350Z,2.50
2023-04-15T14:04:18.093Z,3.13
2023-04-15T14:06:47.039Z,4.23
2023-04-15T14:09:17.994Z,3.87
2023-04-15T14:11:46.441Z,3.47
2023-04-15T14:14:16.306Z,6.93
2023-04-15T14:16:46.591Z,2.83
2023-04-15T14:19:16.866Z,3.90
2023-04-15T14:21:45.266Z,3.03
2023-04-15T14:24:13.839Z,3.80
2023-04-15T14:26:44.100Z,4.73
2023-04-15T14:29:12.686Z,3.93
2023-04-15T14:31:41.073Z,3.43
2023-04-15T14:34:15.056Z,2.67
2023-04-15T14:36:46.118Z,4.07
2023-04-15T14:39:15.711Z,2.53
2023-04-15T14:41:44.234Z,3.10
2023-04-15T14:44:13.904Z,2.40
2023-04-15T14:46:42.429Z,3.70
2023-04-15T14:49:11.937Z,3.57
2023-04-15T14:51:41.707Z,2.10
2023-04-15T14:54:11.622Z,2.90
2023-04-15T14:56:40.180Z,2.87
2023-04-15T14:59:08.573Z,1.97
2023-04-15T15:01:37.158Z,2.20
2023-04-15T15:04:06.296Z,2.60
2023-04-15T15:06:35.517Z,1.60
2023-04-15T15:09:05.015Z,3.03
2023-04-15T15:11:38.322Z,2.70
2023-04-15T15:14:06.734Z,1.97
2023-04-15T15:16:35.649Z,1.83
2023-04-15T15:19:06.069Z,2.47
2023-04-15T15:21:34.690Z,4.03
2023-04-15T15:24:03.166Z,1.13
2023-04-15T15:26:32.318Z,3.97
2023-04-15T15:29:02.358Z,1.33
2023-04-15T15:31:32.473Z,1.70
2023-04-15T15:34:01.152Z,3.90
2023-04-15T15:36:31.337Z,1.23
2023-04-15T15:39:02.155Z,2.40
2023-04-15T15:41:33.874Z,1.90
2023-04-15T15:44:03.804Z,1.63
2023-04-15T15:46:32.312Z,2.23
2023-04-15T15:49:01.190Z,2.67
2023-04-15T15:51:29.856Z,2.00
2023-04-15T15:53:58.506Z,1.77
2023-04-15T15:56:27.490Z,2.37
2023-04-15T15:58:56.161Z,2.33
2023-04-15T16:01:27.009Z,1.90
2023-04-15T16:03:55.683Z,2.03
2023-04-15T16:06:24.709Z,1.77
2023-04-15T16:08:53.872Z,1.50
2023-04-15T16:11:22.307Z,1.50
2023-04-15T16:13:50.860Z,1.57
2023-04-15T16:16:19.600Z,1.50
2023-04-15T16:18:49.473Z,1.67
2023-04-15T16:21:18.095Z,1.70
2023-04-15T16:23:47.561Z,1.83
2023-04-15T16:26:16.176Z,2.50
2023-04-15T16:28:44.973Z,1.63
2023-04-15T16:31:15.360Z,1.70
2023-04-15T16:33:43.750Z,2.13
2023-04-15T16:36:13.768Z,2.17
2023-04-15T16:38:45.253Z,2.27
2023-04-15T16:41:13.689Z,2.00
2023-04-15T16:43:42.527Z,2.07
2023-04-15T16:46:12.214Z,2.03
2023-04-15T16:48:41.296Z,3.10
2023-04-15T16:51:09.884Z,2.37
2023-04-15T16:53:41.491Z,3.90
2023-04-15T16:56:11.508Z,3.43
2023-04-15T16:58:39.969Z,1.90
2023-04-15T17:01:08.397Z,2.30
2023-04-15T17:03:38.884Z,2.93
2023-04-15T17:06:08.467Z,2.20
2023-04-15T17:08:37.062Z,2.27
2023-04-15T17:11:06.912Z,2.40
2023-04-15T17:13:35.564Z,2.83
2023-04-15T17:16:04.413Z,2.67
2023-04-15T17:18:32.959Z,2.60
2023-04-15T17:21:01.936Z,4.37
2023-04-15T17:23:31.124Z,3.33
2023-04-15T17:25:59.708Z,3.80
2023-04-15T17:28:29.614Z,3.10
2023-04-15T17:31:01.435Z,3.20
2023-04-15T17:33:56.498Z,3.90
2023-04-15T17:36:18.298Z,3.40
2023-04-15T17:38:46.886Z,3.47
2023-04-15T17:41:15.788Z,2.60
2023-04-15T17:43:45.834Z,3.00
2023-04-15T17:46:15.188Z,2.67
2023-04-15T17:48:43.732Z,3.60
2023-04-15T17:51:12.877Z,2.47
2023-04-15T17:53:41.305Z,2.47
2023-04-15T17:56:09.696Z,2.53
2023-04-15T17:58:39.287Z,2.87
2023-04-15T18:01:09.398Z,3.60
2023-04-15T18:03:38.465Z,4.23
2023-04-15T18:06:07.752Z,4.00
2023-04-15T18:08:36.279Z,4.73
2023-04-15T18:11:05.046Z,4.23
2023-04-15T18:13:33.543Z,3.83
2023-04-15T18:16:02.037Z,3.70
2023-04-15T18:18:31.786Z,4.07
2023-04-15T18:21:00.227Z,4.33
2023-04-15T18:23:28.633Z,4.17
2023-04-15T18:25:58.175Z,6.20
2023-04-15T18:28:26.726Z,4.17
2023-04-15T18:30:56.625Z,3.90
2023-04-15T18:33:25.179Z,4.07
2023-04-15T18:35:55.719Z,3.57
2023-04-15T18:38:24.394Z,4.27
2023-04-15T18:40:53.418Z,3.53
2023-04-15T18:43:21.904Z,4.57
2023-04-15T18:45:53.050Z,4.03
2023-04-15T18:48:22.149Z,3.87
2023-04-15T18:50:53.981Z,4.07
2023-04-15T18:53:23.815Z,3.50
2023-04-15T18:55:52.462Z,3.10
2023-04-15T18:58:22.157Z,3.60
2023-04-15T19:00:50.661Z,3.17
2023-04-15T19:03:19.188Z,3.23
2023-04-15T19:05:47.938Z,3.50
2023-04-15T19:08:16.429Z,5.53
2023-04-15T19:10:46.148Z,3.30
2023-04-15T19:13:14.999Z,3.83
2023-04-15T19:15:44.642Z,4.20
2023-04-15T19:18:13.395Z,4.70
2023-04-15T19:20:42.064Z,3.60
2023-04-15T19:23:11.824Z,4.67
2023-04-15T19:25:45.094Z,4.40
2023-04-15T19:28:13.489Z,14.23
2023-04-15T19:30:42.181Z,4.40
2023-04-15T19:33:10.658Z,4.13
2023-04-15T19:35:39.093Z,4.10
2023-04-15T19:38:07.887Z,4.60
2023-04-15T19:40:36.481Z,3.97
2023-04-15T19:43:06.509Z,5.20
2023-04-15T19:45:35.450Z,4.20
2023-04-15T19:48:04.146Z,4.33
2023-04-15T19:50:33.370Z,4.90
2023-04-15T19:53:01.818Z,4.80
2023-04-15T19:55:30.195Z,5.43
2023-04-15T19:57:58.586Z,4.87
2023-04-15T20:00:28.630Z,5.00
2023-04-15T20:02:57.592Z,5.67
2023-04-15T20:05:26.295Z,5.60
2023-04-15T20:07:54.806Z,6.40
2023-04-15T20:10:23.787Z,5.60
2023-04-15T20:12:53.356Z,6.40
2023-04-15T20:15:24.022Z,5.83
2023-04-15T20:17:54.303Z,6.87
2023-04-15T20:20:23.425Z,7.50
2023-04-15T20:22:53.114Z,6.27
2023-04-15T20:25:21.792Z,6.63
2023-04-15T20:27:51.458Z,7.67
2023-04-15T20:30:20.262Z,7.00
2023-04-15T20:32:48.658Z,7.10
2023-04-15T20:35:19.917Z,8.57
2023-04-15T20:37:50.298Z,7.57
2023-04-15T20:40:18.882Z,8.30
2023-04-15T20:42:47.298Z,9.23
2023-04-15T20:45:16.161Z,7.40
2023-04-15T20:47:45.424Z,8.07
2023-04-15T20:50:13.987Z,8.30
2023-04-15T20:52:44.685Z,8.67
2023-04-15T20:55:13.090Z,9.47
2023-04-15T20:57:41.638Z,8.30
2023-04-15T21:00:11.486Z,8.63
2023-04-15T21:02:40.309Z,9.37
2023-04-15T21:05:09.094Z,10.00
2023-04-15T21:07:37.653Z,9.97
2023-04-15T21:10:08.518Z,9.60
2023-04-15T21:12:37.620Z,8.93
2023-04-15T21:15:06.867Z,9.00
2023-04-15T21:17:35.622Z,8.80
2023-04-15T21:20:05.726Z,9.20
2023-04-15T21:22:34.020Z,8.87
2023-04-15T21:25:02.556Z,9.10
2023-04-15T21:27:32.395Z,8.80
2023-04-15T21:30:01.019Z,9.77
2023-04-15T21:32:30.488Z,8.87
2023-04-15T21:34:59.071Z,8.60
2023-04-15T21:37:27.622Z,7.50
2023-04-15T21:39:55.963Z,8.10
2023-04-15T21:42:24.801Z,7.23
2023-04-15T21:44:54.861Z,8.57
2023-04-15T21:47:23.197Z,9.07
2023-04-15T21:49:52.545Z,10.87
2023-04-15T21:52:21.425Z,8.47
2023-04-15T21:54:49.904Z,8.93
2023-04-15T21:57:18.736Z,8.13
2023-04-15T21:59:47.236Z,8.20
2023-04-15T22:02:18.280Z,8.63
2023-04-15T22:04:46.657Z,8.17
2023-04-15T22:07:15.585Z,8.73
2023-04-15T22:09:43.985Z,7.40
2023-04-15T22:12:12.402Z,8.47
2023-04-15T22:14:40.810Z,7.87
2023-04-15T22:17:09.340Z,7.47
2023-04-15T22:19:39.228Z,8.00
2023-04-15T22:22:07.694Z,6.87
2023-04-15T22:24:39.990Z,8.93
2023-04-15T22:27:08.994Z,8.80
2023-04-15T22:29:39.133Z,8.20
2023-04-15T22:32:08.677Z,8.50
2023-04-15T22:34:38.543Z,9.07
2023-04-15T22:37:07.263Z,8.53
2023-04-15T22:39:35.794Z,11.40
2023-04-15T22:42:04.681Z,9.10
2023-04-15T22:44:32.996Z,8.10
2023-04-15T22:47:01.664Z,9.10
2023-04-15T22:49:30.039Z,8.03
2023-04-15T22:52:01.942Z,8.00
2023-04-15T22:54:30.391Z,9.20
2023-04-15T22:56:58.815Z,9.33
2023-04-15T22:59:27.240Z,10.30
2023-04-15T23:01:55.848Z,9.53
2023-04-15T23:04:28.231Z,8.70
2023-04-15T23:06:57.000Z,9.30
2023-04-15T23:09:27.238Z,8.77
2023-04-15T23:11:56.951Z,9.13
2023-04-15T23:14:26.256Z,10.00
2023-04-15T23:16:54.763Z,9.77
2023-04-15T23:19:23.188Z,9.90
2023-04-15T23:21:51.723Z,9.80
2023-04-15T23:24:19.998Z,10.57
2023-04-15T23:26:49.759Z,10.73
2023-04-15T23:29:18.747Z,10.30
2023-04-15T23:31:47.113Z,9.80
2023-04-15T23:34:15.644Z,11.03
2023-04-15T23:36:44.489Z,11.17
2023-04-15T23:39:12.895Z,11.37
2023-04-15T23:41:41.373Z,12.07
2023-04-15T23:44:11.148Z,12.07
2023-04-15T23:46:39.623Z,9.40
2023-04-15T23:49:08.196Z,10.13
2023-04-15T23:51:36.765Z,9.33
2023-04-15T23:54:05.319Z,10.60
2023-04-15T23:56:34.203Z,12.60
2023-04-15T23:59:02.694Z,11.67
